KGLD

Renner Field / Goodland Municipal / Airport

Goodland, Kansas, USA
METAR KGLD 230802Z AUTO 27006KT 2 1/2SM BR OVC003 M05/M06 A3012 RMK AO2 T10501056
Observed Flight Rules
Feb-23 @ 08:02 UTC (23 minutes ago) Instrument Flight Rules
Wind Visibility Clouds Conditions
270° at 6 knots 2 1/2 miles
  • Overcast at 300' AGL
  • Mist
Temperatures Readings
Current -5°C / 23°F
Dewpoint -6°C / 21°F
Humidity 93%
Altimeter 30.12" Hg
Pressure 1020 hPa
Elevation 1113
METAR KGLD 230802Z AUTO 27006KT 2 1/2SM BR OVC003 M05/M06 A3012 RMK AO2 T10501056
Observed Flight Rules
Feb-23 @ 08:02 UTC
(23 minutes ago)
LIFR
Wind Visibility
270° at 6 knots 2 1/2 miles
Clouds
  • Overcast at 300' AGL
Conditions
  • Mist
Temperature Dewpoint
-5°C / 23°F -6°C / 21°F
Humidity Altimeter Pressure
93% 30.12" Hg 1020 hPa